Time;durP1;ratioP1;P1;durP2;ratioP2;P2;SDS_P1;SDS_P2;PMS_P1;PMS_P2;Temp;Humidity;BMP_temperature;BMP_pressure;BME280_temperature;BME280_humidity;BME280_pressure;Samples;Min_cycle;Max_cycle;Signal;HPM_P1;HPM_P2
2022/08/28 00:00:41;;;;;;;22.33;17.83;;;;;;;;;;5046831;28;20316;-74
2022/08/28 00:03:09;;;;;;;21.80;17.80;;;;;;;;;;5036782;28;20187;-74
2022/08/28 00:05:38;;;;;;;22.87;17.27;;;;;;;;;;5045995;28;20258;-74
2022/08/28 00:08:05;;;;;;;22.63;17.30;;;;;;;;;;5062813;28;20201;-74
2022/08/28 00:10:32;;;;;;;21.53;17.80;;;;;;;;;;5063251;28;20723;-73
2022/08/28 00:12:59;;;;;;;21.03;17.57;;;;;;;;;;5047755;28;20269;-74
2022/08/28 00:15:28;;;;;;;27.80;20.47;;;;;;;;;;5046181;28;20221;-73
2022/08/28 00:17:55;;;;;;;22.80;19.47;;;;;;;;;;5049521;28;20196;-74
2022/08/28 00:20:22;;;;;;;21.97;18.20;;;;;;;;;;5044325;28;20725;-74
2022/08/28 00:23:06;;;;;;;24.27;18.33;;;;;;;;;;5046420;28;20174;-73
2022/08/28 00:25:35;;;;;;;24.00;18.13;;;;;;;;;;5029804;28;20316;-74
2022/08/28 00:28:03;;;;;;;24.07;18.93;;;;;;;;;;5063171;28;20191;-74
2022/08/28 00:30:39;;;;;;;21.80;18.20;;;;;;;;;;5061943;28;20198;-74
2022/08/28 00:33:26;;;;;;;22.37;17.97;;;;;;;;;;5047432;28;20401;-74
2022/08/28 00:35:53;;;;;;;21.40;17.77;;;;;;;;;;5060744;28;20214;-74
2022/08/28 00:38:20;;;;;;;23.20;17.77;;;;;;;;;;5047994;28;20270;-73
2022/08/28 00:40:49;;;;;;;27.83;20.23;;;;;;;;;;5062566;28;20197;-74
2022/08/28 00:43:22;;;;;;;28.10;20.53;;;;;;;;;;5047468;28;20203;-74
2022/08/28 00:45:50;;;;;;;22.77;20.20;;;;;;;;;;5047296;28;20222;-73
2022/08/28 00:48:17;;;;;;;28.33;20.90;;;;;;;;;;5063408;28;20191;-73
2022/08/28 00:53:30;;;;;;;22.23;17.57;;;;;;;;;;5064549;28;20195;-73
2022/08/28 00:56:00;;;;;;;24.47;20.67;;;;;;;;;;5050600;28;20238;-73
2022/08/28 00:58:26;;;;;;;22.13;19.47;;;;;;;;;;5066186;28;20175;-74
2022/08/28 01:00:53;;;;;;;22.67;18.63;;;;;;;;;;5050982;28;20198;-74
2022/08/28 01:03:20;;;;;;;21.03;17.37;;;;;;;;;;5051236;28;20198;-74
2022/08/28 01:05:52;;;;;;;22.97;18.17;;;;;;;;;;5050760;28;20554;-74
2022/08/28 01:08:19;;;;;;;20.43;16.20;;;;;;;;;;5050962;28;20205;-74
2022/08/28 01:10:49;;;;;;;18.80;16.10;;;;;;;;;;5049693;28;20187;-74
2022/08/28 01:13:16;;;;;;;22.10;17.80;;;;;;;;;;5050793;28;20193;-73
2022/08/28 01:15:43;;;;;;;23.17;18.93;;;;;;;;;;5041287;28;20195;-74
2022/08/28 01:18:11;;;;;;;23.23;18.37;;;;;;;;;;5050766;28;20191;-74
2022/08/28 01:20:41;;;;;;;20.33;18.20;;;;;;;;;;5065313;28;20238;-74
2022/08/28 01:23:09;;;;;;;20.37;17.10;;;;;;;;;;5049613;28;20278;-73
2022/08/28 01:25:53;;;;;;;23.50;18.13;;;;;;;;;;5062987;28;20712;-73
2022/08/28 01:28:20;;;;;;;23.03;16.73;;;;;;;;;;5065824;28;20278;-73
2022/08/28 01:30:47;;;;;;;18.13;15.90;;;;;;;;;;5043624;28;20210;-74
2022/08/28 01:33:14;;;;;;;22.13;17.10;;;;;;;;;;5065693;28;20198;-73
2022/08/28 01:35:42;;;;;;;20.20;17.30;;;;;;;;;;5058562;28;20220;-73
2022/08/28 01:38:09;;;;;;;19.37;17.00;;;;;;;;;;5067711;28;20244;-73
2022/08/28 01:40:40;;;;;;;21.37;16.63;;;;;;;;;;5052304;28;20197;-74
2022/08/28 01:43:11;;;;;;;22.73;17.70;;;;;;;;;;5048828;28;20241;-74
2022/08/28 01:45:43;;;;;;;21.67;17.37;;;;;;;;;;5049788;28;20190;-73
2022/08/28 01:48:09;;;;;;;23.00;17.93;;;;;;;;;;5049576;28;20273;-73
2022/08/28 01:50:37;;;;;;;21.77;17.67;;;;;;;;;;5043315;28;20225;-73
2022/08/28 01:53:04;;;;;;;23.47;17.80;;;;;;;;;;5065179;28;20885;-73
2022/08/28 01:55:34;;;;;;;21.63;16.30;;;;;;;;;;5048677;28;20210;-73
2022/08/28 01:58:02;;;;;;;20.07;17.63;;;;;;;;;;5049911;28;20607;-73
2022/08/28 02:00:29;;;;;;;21.43;17.07;;;;;;;;;;5064905;28;20225;-73
2022/08/28 02:02:57;;;;;;;23.00;18.23;;;;;;;;;;5064858;28;20191;-73
2022/08/28 02:05:24;;;;;;;19.33;16.10;;;;;;;;;;5050342;28;20203;-73
2022/08/28 02:07:51;;;;;;;22.90;16.43;;;;;;;;;;5011655;28;20195;-73
2022/08/28 02:10:36;;;;;;;20.50;16.67;;;;;;;;;;5062509;28;20193;-73
2022/08/28 02:13:03;;;;;;;22.63;18.20;;;;;;;;;;5049312;28;20199;-73
2022/08/28 02:15:29;;;;;;;21.50;15.73;;;;;;;;;;5049793;28;20206;-74
2022/08/28 02:17:56;;;;;;;23.07;16.23;;;;;;;;;;5049294;28;20191;-73
2022/08/28 02:20:23;;;;;;;19.57;16.53;;;;;;;;;;5048600;28;20215;-73
2022/08/28 02:22:50;;;;;;;24.17;17.63;;;;;;;;;;5048389;28;20201;-73
2022/08/28 02:25:17;;;;;;;24.23;16.87;;;;;;;;;;5037653;28;20358;-72
2022/08/28 02:27:44;;;;;;;19.17;16.57;;;;;;;;;;5008078;28;20251;-73
2022/08/28 02:30:13;;;;;;;20.07;16.73;;;;;;;;;;5026868;28;20183;-73
2022/08/28 02:32:40;;;;;;;23.23;16.07;;;;;;;;;;5012016;28;20197;-73
2022/08/28 02:35:07;;;;;;;19.27;16.03;;;;;;;;;;5029475;28;20199;-73
2022/08/28 02:37:38;;;;;;;20.27;17.23;;;;;;;;;;5012137;28;20245;-73
2022/08/28 02:40:05;;;;;;;18.50;15.03;;;;;;;;;;5011659;28;20199;-73
2022/08/28 02:42:32;;;;;;;20.87;15.77;;;;;;;;;;5029141;28;20198;-73
2022/08/28 02:44:59;;;;;;;20.13;16.50;;;;;;;;;;5028864;28;20205;-73
2022/08/28 02:47:26;;;;;;;20.87;15.43;;;;;;;;;;5011720;28;20176;-73
2022/08/28 02:49:53;;;;;;;20.17;15.93;;;;;;;;;;4994272;28;20206;-73
2022/08/28 02:52:21;;;;;;;17.70;15.10;;;;;;;;;;5025488;28;20195;-73
2022/08/28 02:54:48;;;;;;;18.10;15.20;;;;;;;;;;5029432;28;20196;-73
2022/08/28 02:57:15;;;;;;;18.03;14.03;;;;;;;;;;5014516;28;20236;-73
2022/08/28 02:59:42;;;;;;;16.30;14.57;;;;;;;;;;5029124;28;20179;-73
2022/08/28 03:02:09;;;;;;;16.83;15.03;;;;;;;;;;5029147;28;20226;-73
2022/08/28 03:04:37;;;;;;;18.30;16.07;;;;;;;;;;5028543;28;20650;-74
2022/08/28 03:07:05;;;;;;;20.73;15.57;;;;;;;;;;4990498;28;21053;-73
2022/08/28 03:09:31;;;;;;;18.93;15.03;;;;;;;;;;5011230;28;20546;-73
2022/08/28 03:11:58;;;;;;;17.93;14.27;;;;;;;;;;5010295;28;20195;-73
2022/08/28 03:14:26;;;;;;;18.93;14.40;;;;;;;;;;5028821;28;20718;-73
2022/08/28 03:17:11;;;;;;;17.07;14.63;;;;;;;;;;5028696;28;20226;-73
2022/08/28 03:19:37;;;;;;;18.80;14.90;;;;;;;;;;5028128;28;20190;-73
2022/08/28 03:22:04;;;;;;;20.20;15.37;;;;;;;;;;5028528;28;20195;-73
2022/08/28 03:24:32;;;;;;;19.77;15.50;;;;;;;;;;5026134;28;20219;-73
2022/08/28 03:27:00;;;;;;;20.80;16.20;;;;;;;;;;5046829;28;20465;-73
2022/08/28 03:29:27;;;;;;;19.30;15.70;;;;;;;;;;5047104;28;20233;-73
2022/08/28 03:31:54;;;;;;;18.10;14.47;;;;;;;;;;5048347;28;20810;-72
2022/08/28 03:34:20;;;;;;;18.03;14.40;;;;;;;;;;5048418;28;20274;-73
2022/08/28 03:36:47;;;;;;;19.63;15.63;;;;;;;;;;5029752;28;20686;-72
2022/08/28 03:39:14;;;;;;;19.90;16.17;;;;;;;;;;5048381;28;20179;-72
2022/08/28 03:41:41;;;;;;;20.30;15.10;;;;;;;;;;5048476;28;20183;-72
2022/08/28 03:44:08;;;;;;;19.17;15.57;;;;;;;;;;5048278;28;20187;-73
2022/08/28 03:46:35;;;;;;;19.00;15.37;;;;;;;;;;5030126;28;20206;-72
2022/08/28 03:49:02;;;;;;;18.03;15.67;;;;;;;;;;5029459;28;20240;-72
2022/08/28 03:51:30;;;;;;;16.90;14.40;;;;;;;;;;5030166;28;20266;-72
2022/08/28 03:53:57;;;;;;;17.40;14.83;;;;;;;;;;5046584;28;20277;-72
2022/08/28 03:56:24;;;;;;;16.77;14.97;;;;;;;;;;5047295;28;20207;-72
2022/08/28 03:58:53;;;;;;;16.80;13.80;;;;;;;;;;5047641;28;20209;-72
2022/08/28 04:01:20;;;;;;;18.30;15.23;;;;;;;;;;5047123;28;20546;-72
2022/08/28 04:03:47;;;;;;;16.60;13.63;;;;;;;;;;5048069;28;20294;-72
2022/08/28 04:06:14;;;;;;;18.93;15.00;;;;;;;;;;5045608;28;20195;-72
2022/08/28 04:08:42;;;;;;;18.13;14.83;;;;;;;;;;5030459;28;20278;-72
2022/08/28 04:11:08;;;;;;;17.83;14.73;;;;;;;;;;5030545;28;20585;-72
2022/08/28 04:13:36;;;;;;;17.40;15.43;;;;;;;;;;5047687;28;20195;-72
2022/08/28 04:16:04;;;;;;;19.30;15.97;;;;;;;;;;5047679;28;20213;-73
2022/08/28 04:18:31;;;;;;;17.33;14.87;;;;;;;;;;5048417;28;20187;-73
2022/08/28 04:21:06;;;;;;;17.80;14.87;;;;;;;;;;5047621;28;20238;-73
2022/08/28 04:23:34;;;;;;;17.23;14.67;;;;;;;;;;5051075;28;20679;-73
2022/08/28 04:26:03;;;;;;;18.17;14.83;;;;;;;;;;5034234;28;20245;-75
2022/08/28 04:28:31;;;;;;;17.07;14.77;;;;;;;;;;5026445;28;20199;-73
2022/08/28 04:30:57;;;;;;;16.57;13.97;;;;;;;;;;5031739;28;20195;-72
2022/08/28 04:33:24;;;;;;;18.83;14.53;;;;;;;;;;5031269;28;20184;-72
2022/08/28 04:35:51;;;;;;;16.70;14.40;;;;;;;;;;5014082;28;20218;-73
2022/08/28 04:38:19;;;;;;;17.30;14.33;;;;;;;;;;4997608;28;20195;-73
2022/08/28 04:40:46;;;;;;;16.17;13.33;;;;;;;;;;5014090;28;20187;-72
2022/08/28 04:43:13;;;;;;;18.70;14.30;;;;;;;;;;5013401;28;20191;-72
2022/08/28 04:45:43;;;;;;;17.20;14.53;;;;;;;;;;4997830;28;20222;-74
2022/08/28 04:48:11;;;;;;;21.50;14.83;;;;;;;;;;5004829;28;20558;-77
2022/08/28 04:50:43;;;;;;;21.90;16.67;;;;;;;;;;5025918;28;20197;-78
2022/08/28 04:53:29;;;;;;;19.37;16.20;;;;;;;;;;4992609;28;20192;-79
2022/08/28 04:55:59;;;;;;;21.67;16.30;;;;;;;;;;5024318;28;20610;-76
2022/08/28 04:58:29;;;;;;;20.10;15.97;;;;;;;;;;5009067;28;20253;-80
2022/08/28 05:00:56;;;;;;;16.83;15.03;;;;;;;;;;5014800;28;20241;-81
2022/08/28 05:03:23;;;;;;;20.10;15.87;;;;;;;;;;5031943;28;20184;-78
2022/08/28 05:05:51;;;;;;;20.10;17.03;;;;;;;;;;4979523;28;20195;-73
2022/08/28 05:08:18;;;;;;;17.10;14.93;;;;;;;;;;5004312;28;20199;-74
2022/08/28 05:10:45;;;;;;;18.27;15.93;;;;;;;;;;5025714;28;20194;-75
2022/08/28 05:13:14;;;;;;;20.60;15.93;;;;;;;;;;5024193;28;20187;-79
2022/08/28 05:15:44;;;;;;;17.80;15.83;;;;;;;;;;4991641;28;20246;-78
2022/08/28 05:18:16;;;;;;;19.47;15.67;;;;;;;;;;5025187;28;20312;-76
2022/08/28 05:21:01;;;;;;;18.20;15.67;;;;;;;;;;5012043;28;20179;-77
2022/08/28 05:23:32;;;;;;;25.07;15.93;;;;;;;;;;5007098;28;20686;-76
2022/08/28 05:25:59;;;;;;;19.83;17.47;;;;;;;;;;5042234;28;20316;-75
2022/08/28 05:28:26;;;;;;;21.60;18.83;;;;;;;;;;5044626;28;20249;-76
2022/08/28 05:30:53;;;;;;;20.30;18.10;;;;;;;;;;5027835;28;20214;-75
2022/08/28 05:33:21;;;;;;;19.67;17.67;;;;;;;;;;5028817;28;20217;-76
2022/08/28 05:35:48;;;;;;;20.53;18.23;;;;;;;;;;5043478;28;20777;-77
2022/08/28 05:38:16;;;;;;;19.63;17.50;;;;;;;;;;5044697;28;20230;-77
2022/08/28 05:40:43;;;;;;;19.97;17.40;;;;;;;;;;5044913;28;20274;-77
2022/08/28 05:43:11;;;;;;;21.67;19.07;;;;;;;;;;5043191;28;20191;-78
2022/08/28 05:45:39;;;;;;;21.30;18.07;;;;;;;;;;5028239;28;20274;-79
2022/08/28 05:48:06;;;;;;;21.80;17.83;;;;;;;;;;5044826;28;20210;-77
2022/08/28 05:50:33;;;;;;;19.87;16.00;;;;;;;;;;5027304;28;20277;-77
2022/08/28 05:53:00;;;;;;;17.30;15.50;;;;;;;;;;5045018;28;20240;-78
2022/08/28 05:55:27;;;;;;;23.23;19.57;;;;;;;;;;5043341;28;20198;-76
2022/08/28 05:58:27;;;;;;;22.33;19.13;;;;;;;;;;5015784;28;20236;-75
2022/08/28 06:00:41;;;;;;;20.07;17.97;;;;;;;;;;5043075;28;20190;-77
2022/08/28 06:03:08;;;;;;;20.20;18.07;;;;;;;;;;5043900;28;20207;-74
2022/08/28 06:05:36;;;;;;;22.67;18.33;;;;;;;;;;5043193;28;20191;-77
2022/08/28 06:08:02;;;;;;;19.00;16.53;;;;;;;;;;5026010;28;20232;-76
2022/08/28 06:10:30;;;;;;;17.50;15.57;;;;;;;;;;5042505;28;20244;-77
2022/08/28 06:12:58;;;;;;;20.90;14.70;;;;;;;;;;5025261;28;20233;-77
2022/08/28 06:15:25;;;;;;;16.77;13.20;;;;;;;;;;5025662;28;20281;-80
2022/08/28 06:17:53;;;;;;;17.00;13.80;;;;;;;;;;5026119;28;20195;-81
2022/08/28 06:20:20;;;;;;;18.03;13.27;;;;;;;;;;5042666;28;20951;-78
2022/08/28 06:22:49;;;;;;;14.20;11.97;;;;;;;;;;5050347;28;20195;-77
2022/08/28 06:25:16;;;;;;;15.33;12.07;;;;;;;;;;5049207;28;20305;-79
2022/08/28 06:27:43;;;;;;;14.13;11.87;;;;;;;;;;5050198;28;20191;-78
2022/08/28 06:30:27;;;;;;;15.20;12.37;;;;;;;;;;5048839;28;20183;-77
2022/08/28 06:32:56;;;;;;;18.93;13.00;;;;;;;;;;5043309;28;20207;-77
2022/08/28 06:35:23;;;;;;;16.27;12.67;;;;;;;;;;5050014;28;20270;-77
2022/08/28 06:37:49;;;;;;;16.60;12.97;;;;;;;;;;5050040;28;20705;-77
2022/08/28 06:40:16;;;;;;;15.73;12.87;;;;;;;;;;5049446;28;20222;-77
2022/08/28 06:42:44;;;;;;;14.57;12.13;;;;;;;;;;5049849;28;20191;-78
2022/08/28 06:45:11;;;;;;;15.40;12.27;;;;;;;;;;5048840;28;20290;-77
2022/08/28 06:47:38;;;;;;;15.37;11.80;;;;;;;;;;5048454;28;20182;-77
2022/08/28 06:50:05;;;;;;;12.73;11.37;;;;;;;;;;5049095;28;20217;-77
2022/08/28 06:52:49;;;;;;;17.00;11.57;;;;;;;;;;5036125;28;20218;-77
2022/08/28 06:55:16;;;;;;;13.17;11.53;;;;;;;;;;5030926;28;20191;-77
2022/08/28 06:57:43;;;;;;;12.33;10.53;;;;;;;;;;5049624;28;20224;-78
2022/08/28 07:00:10;;;;;;;14.73;11.40;;;;;;;;;;5049233;28;20285;-77
2022/08/28 07:02:37;;;;;;;13.70;10.67;;;;;;;;;;5048382;28;20194;-77
2022/08/28 07:05:04;;;;;;;14.00;11.07;;;;;;;;;;5048944;28;20226;-77
2022/08/28 07:07:31;;;;;;;14.73;10.23;;;;;;;;;;5048032;28;20240;-77
2022/08/28 07:10:00;;;;;;;11.87;9.97;;;;;;;;;;5031725;28;20277;-77
2022/08/28 07:12:28;;;;;;;12.97;9.77;;;;;;;;;;5048433;28;20198;-77
2022/08/28 07:14:55;;;;;;;13.37;10.77;;;;;;;;;;5048274;28;20218;-77
2022/08/28 07:17:23;;;;;;;11.87;10.63;;;;;;;;;;5049297;28;20213;-76
2022/08/28 07:19:50;;;;;;;13.53;10.50;;;;;;;;;;5048611;28;20276;-77
2022/08/28 07:22:17;;;;;;;11.53;10.37;;;;;;;;;;5031285;28;20660;-77
2022/08/28 07:24:44;;;;;;;14.10;10.23;;;;;;;;;;5048447;28;20214;-76
2022/08/28 07:27:11;;;;;;;13.50;11.37;;;;;;;;;;5047427;28;20593;-77
2022/08/28 07:29:44;;;;;;;12.60;10.33;;;;;;;;;;5048689;28;20179;-76
2022/08/28 07:32:12;;;;;;;13.80;11.30;;;;;;;;;;5049089;28;20278;-76
2022/08/28 07:34:39;;;;;;;13.20;10.27;;;;;;;;;;5047278;28;20195;-76
2022/08/28 07:37:06;;;;;;;12.37;10.97;;;;;;;;;;5048587;28;20212;-76
2022/08/28 07:39:40;;;;;;;12.60;10.77;;;;;;;;;;5048504;28;20233;-76
2022/08/28 07:42:07;;;;;;;12.53;11.03;;;;;;;;;;5030978;28;20258;-76
2022/08/28 07:44:49;;;;;;;14.03;10.30;;;;;;;;;;5048579;28;20193;-76
2022/08/28 07:47:16;;;;;;;14.80;10.70;;;;;;;;;;5048463;28;20651;-76
2022/08/28 07:49:43;;;;;;;11.80;10.00;;;;;;;;;;5048404;28;20298;-76
2022/08/28 07:52:10;;;;;;;13.57;8.93;;;;;;;;;;5047758;28;20222;-76
2022/08/28 07:54:39;;;;;;;13.67;9.87;;;;;;;;;;5047315;28;20229;-76
2022/08/28 07:57:23;;;;;;;10.80;9.10;;;;;;;;;;5051123;28;20217;-80
2022/08/28 07:59:55;;;;;;;10.83;9.70;;;;;;;;;;5039175;28;20194;-80
2022/08/28 08:02:23;;;;;;;12.70;9.43;;;;;;;;;;5057218;28;20186;-80
2022/08/28 08:04:53;;;;;;;11.93;9.33;;;;;;;;;;5022805;28;20639;-80
2022/08/28 08:07:20;;;;;;;10.80;8.97;;;;;;;;;;5055519;28;20226;-80
2022/08/28 08:09:47;;;;;;;12.07;9.73;;;;;;;;;;5039443;28;20190;-80
2022/08/28 08:12:16;;;;;;;11.43;9.30;;;;;;;;;;5039732;28;20278;-80
2022/08/28 08:14:44;;;;;;;10.27;9.27;;;;;;;;;;5037309;28;20290;-81
2022/08/28 08:17:13;;;;;;;11.27;9.57;;;;;;;;;;5039627;28;20745;-81
2022/08/28 08:19:41;;;;;;;12.57;9.83;;;;;;;;;;5022662;28;20191;-80
2022/08/28 08:22:14;;;;;;;11.03;9.60;;;;;;;;;;5039155;28;20194;-80
2022/08/28 08:24:43;;;;;;;12.50;9.60;;;;;;;;;;5039286;28;20309;-79
2022/08/28 08:27:15;;;;;;;13.97;9.10;;;;;;;;;;5026310;28;20191;-79
2022/08/28 08:29:42;;;;;;;10.17;9.17;;;;;;;;;;5031037;28;20729;-78
2022/08/28 08:32:09;;;;;;;11.20;9.50;;;;;;;;;;5048744;28;20194;-79
2022/08/28 08:34:38;;;;;;;9.87;8.93;;;;;;;;;;5047026;28;20225;-79
2022/08/28 08:37:05;;;;;;;13.17;10.07;;;;;;;;;;5046448;28;20221;-79
2022/08/28 08:39:32;;;;;;;11.77;9.10;;;;;;;;;;5045925;28;20247;-74
2022/08/28 08:41:59;;;;;;;12.50;9.57;;;;;;;;;;5052585;28;20186;-80
2022/08/28 08:44:37;;;;;;;10.10;9.10;;;;;;;;;;5035265;28;20213;-75
2022/08/28 08:47:18;;;;;;;11.50;9.33;;;;;;;;;;5047946;28;20211;-74
2022/08/28 08:50:02;;;;;;;11.33;8.90;;;;;;;;;;5049026;28;20191;-78
2022/08/28 08:52:47;;;;;;;10.93;9.07;;;;;;;;;;5031440;28;20210;-79
2022/08/28 08:55:25;;;;;;;13.00;9.40;;;;;;;;;;5040891;28;20357;-76
2022/08/28 08:57:56;;;;;;;9.83;8.73;;;;;;;;;;5051503;28;20780;-76
2022/08/28 09:00:24;;;;;;;10.33;8.60;;;;;;;;;;5054494;28;20195;-76
2022/08/28 09:02:51;;;;;;;11.63;9.13;;;;;;;;;;5054519;28;20202;-77
2022/08/28 09:05:19;;;;;;;11.37;8.73;;;;;;;;;;5053880;28;20672;-77
2022/08/28 09:08:05;;;;;;;9.77;8.43;;;;;;;;;;5038658;28;20175;-78
2022/08/28 09:10:37;;;;;;;11.50;9.10;;;;;;;;;;5050462;28;20187;-77
2022/08/28 09:13:31;;;;;;;13.50;8.77;;;;;;;;;;5050487;28;20171;-78
2022/08/28 09:15:59;;;;;;;12.23;8.50;;;;;;;;;;5034663;28;20542;-77
2022/08/28 09:18:27;;;;;;;12.87;8.40;;;;;;;;;;5050251;28;20218;-77
2022/08/28 09:20:54;;;;;;;11.50;8.00;;;;;;;;;;5033352;28;20815;-84
2022/08/28 09:23:22;;;;;;;12.93;8.57;;;;;;;;;;5044671;28;20279;-79
2022/08/28 09:25:51;;;;;;;10.00;8.70;;;;;;;;;;5032944;28;20758;-78
2022/08/28 09:28:26;;;;;;;15.10;8.57;;;;;;;;;;5049712;28;20274;-78
2022/08/28 09:30:56;;;;;;;12.60;8.70;;;;;;;;;;5050656;28;20236;-78
2022/08/28 09:33:27;;;;;;;10.63;7.93;;;;;;;;;;5033282;28;20194;-78
2022/08/28 09:35:57;;;;;;;10.87;8.17;;;;;;;;;;5015398;28;20240;-77
2022/08/28 09:38:26;;;;;;;9.67;8.17;;;;;;;;;;5050781;28;20207;-78
2022/08/28 09:44:13;;;;;;;11.30;8.57;;;;;;;;;;5049799;28;20707;-77
2022/08/28 09:46:43;;;;;;;11.87;8.50;;;;;;;;;;5050501;28;20195;-77
2022/08/28 09:49:12;;;;;;;11.93;8.17;;;;;;;;;;5033391;28;20709;-77
2022/08/28 09:51:39;;;;;;;9.30;8.03;;;;;;;;;;5049326;28;20218;-77
2022/08/28 09:54:18;;;;;;;10.00;7.30;;;;;;;;;;5049088;28;20241;-77
2022/08/28 09:56:47;;;;;;;11.10;8.03;;;;;;;;;;5032888;28;20194;-77
2022/08/28 09:59:15;;;;;;;9.90;7.80;;;;;;;;;;5048240;28;20245;-77
2022/08/28 10:01:46;;;;;;;9.13;7.50;;;;;;;;;;5032447;28;20198;-77
2022/08/28 10:04:16;;;;;;;12.90;8.03;;;;;;;;;;5050133;28;20187;-77
2022/08/28 10:07:21;;;;;;;9.97;8.03;;;;;;;;;;5050333;28;20176;-77
2022/08/28 10:10:06;;;;;;;11.93;8.53;;;;;;;;;;5019308;28;20191;-77
2022/08/28 10:12:51;;;;;;;8.90;8.00;;;;;;;;;;5050425;28;20270;-75
2022/08/28 10:15:21;;;;;;;9.67;8.50;;;;;;;;;;5050728;28;20618;-76
2022/08/28 10:18:07;;;;;;;10.70;8.03;;;;;;;;;;5031058;28;20694;-79
2022/08/28 10:20:38;;;;;;;12.57;8.07;;;;;;;;;;5030252;28;20202;-79
2022/08/28 10:23:05;;;;;;;8.87;7.30;;;;;;;;;;5046624;28;20233;-77
2022/08/28 10:25:37;;;;;;;11.27;8.30;;;;;;;;;;5032071;28;20706;-78
2022/08/28 10:28:41;;;;;;;9.27;8.03;;;;;;;;;;5048156;28;20226;-76
2022/08/28 10:31:15;;;;;;;8.90;7.83;;;;;;;;;;5046412;28;20191;-76
2022/08/28 10:34:03;;;;;;;9.73;7.97;;;;;;;;;;5038858;28;20190;-75
2022/08/28 10:37:05;;;;;;;8.20;7.50;;;;;;;;;;5039366;28;20730;-75
2022/08/28 10:39:48;;;;;;;9.13;7.87;;;;;;;;;;5042982;28;20293;-74
2022/08/28 10:42:17;;;;;;;8.40;7.60;;;;;;;;;;5013184;28;20190;-77
2022/08/28 10:44:49;;;;;;;8.30;7.50;;;;;;;;;;5039972;28;20190;-72
2022/08/28 10:47:19;;;;;;;11.13;8.30;;;;;;;;;;5040219;28;20278;-73
2022/08/28 10:49:48;;;;;;;11.23;8.23;;;;;;;;;;5022697;28;20285;-71
2022/08/28 10:52:20;;;;;;;9.97;8.27;;;;;;;;;;5041393;28;20195;-73
2022/08/28 10:54:48;;;;;;;9.03;8.23;;;;;;;;;;5041809;28;20240;-76
2022/08/28 10:57:31;;;;;;;11.27;8.70;;;;;;;;;;5040468;28;20300;-72
2022/08/28 11:03:39;;;;;;;9.43;8.40;;;;;;;;;;5041685;28;20593;-79
2022/08/28 11:06:10;;;;;;;10.57;9.37;;;;;;;;;;5006666;28;21223;-74
2022/08/28 11:08:39;;;;;;;12.83;9.43;;;;;;;;;;5035471;28;20951;-74
2022/08/28 11:11:10;;;;;;;11.23;10.13;;;;;;;;;;5038363;28;20195;-74
2022/08/28 11:13:36;;;;;;;11.50;9.77;;;;;;;;;;5023131;28;20277;-75
2022/08/28 11:16:11;;;;;;;11.43;10.43;;;;;;;;;;5038315;28;21118;-77
2022/08/28 11:18:55;;;;;;;11.03;9.80;;;;;;;;;;5038876;28;20272;-74
2022/08/28 11:21:32;;;;;;;11.40;10.23;;;;;;;;;;5038638;28;20293;-79
2022/08/28 11:27:17;;;;;;;13.07;11.00;;;;;;;;;;5039403;28;20228;-72
2022/08/28 11:30:08;;;;;;;12.57;10.77;;;;;;;;;;5010397;28;20178;-76
2022/08/28 11:32:54;;;;;;;15.80;10.37;;;;;;;;;;5044849;28;20194;-72
2022/08/28 11:35:33;;;;;;;12.73;9.33;;;;;;;;;;5004072;28;20236;-77
2022/08/28 11:38:00;;;;;;;11.67;9.73;;;;;;;;;;5038536;28;21124;-73
2022/08/28 11:40:53;;;;;;;12.80;9.87;;;;;;;;;;5036752;28;20170;-74
2022/08/28 11:43:20;;;;;;;11.00;9.90;;;;;;;;;;5036103;28;20213;-75
2022/08/28 11:45:53;;;;;;;13.17;9.73;;;;;;;;;;5037056;28;20214;-73
2022/08/28 11:48:32;;;;;;;12.30;9.43;;;;;;;;;;5017911;28;20798;-74
2022/08/28 11:51:08;;;;;;;12.20;9.67;;;;;;;;;;5036268;28;20199;-73
2022/08/28 11:53:35;;;;;;;13.87;9.03;;;;;;;;;;5039851;28;20205;-76
2022/08/28 11:56:07;;;;;;;10.93;9.77;;;;;;;;;;5038323;28;20716;-75
2022/08/28 11:58:46;;;;;;;12.60;9.57;;;;;;;;;;5020747;28;20269;-75
2022/08/28 12:01:15;;;;;;;10.43;8.37;;;;;;;;;;5034833;28;20201;-75
2022/08/28 12:04:03;;;;;;;10.87;8.40;;;;;;;;;;5038148;28;20195;-77
2022/08/28 12:06:53;;;;;;;10.80;8.53;;;;;;;;;;5020741;28;20709;-80
2022/08/28 12:09:39;;;;;;;12.07;9.20;;;;;;;;;;5027250;28;20211;-82
2022/08/28 12:12:12;;;;;;;10.70;8.30;;;;;;;;;;5044880;28;20205;-81
2022/08/28 12:14:39;;;;;;;9.60;8.50;;;;;;;;;;5042402;28;20191;-81
2022/08/28 12:17:15;;;;;;;10.93;8.60;;;;;;;;;;5043619;28;20241;-81
2022/08/28 12:19:47;;;;;;;11.17;8.27;;;;;;;;;;5047192;28;20217;-81
2022/08/28 12:22:23;;;;;;;10.53;6.37;;;;;;;;;;5044605;28;20209;-81
2022/08/28 12:25:10;;;;;;;9.20;6.50;;;;;;;;;;5046907;28;20225;-82
2022/08/28 12:27:39;;;;;;;8.57;6.60;;;;;;;;;;5046531;28;20256;-82
2022/08/28 12:30:07;;;;;;;7.90;6.00;;;;;;;;;;5013472;28;20226;-79
2022/08/28 12:32:50;;;;;;;9.20;6.30;;;;;;;;;;5010887;28;20195;-77
2022/08/28 12:35:21;;;;;;;9.37;6.37;;;;;;;;;;5024514;28;20542;-77
2022/08/28 12:37:48;;;;;;;7.23;6.53;;;;;;;;;;5048190;28;20190;-79
2022/08/28 12:40:20;;;;;;;6.70;6.10;;;;;;;;;;5038970;28;20193;-80
2022/08/28 12:43:13;;;;;;;8.83;6.57;;;;;;;;;;5042224;28;20205;-81
2022/08/28 12:46:10;;;;;;;13.40;6.40;;;;;;;;;;5040534;28;20213;-79
2022/08/28 12:48:52;;;;;;;12.43;6.87;;;;;;;;;;5034210;28;20222;-79
2022/08/28 12:51:39;;;;;;;8.33;5.93;;;;;;;;;;5043902;28;20277;-80
2022/08/28 12:54:24;;;;;;;6.90;5.70;;;;;;;;;;5047927;28;20222;-81
2022/08/28 12:56:50;;;;;;;7.80;5.80;;;;;;;;;;5046867;28;20197;-82
2022/08/28 12:59:25;;;;;;;8.77;5.43;;;;;;;;;;5048736;28;20217;-81
2022/08/28 13:01:53;;;;;;;7.33;5.63;;;;;;;;;;5051144;28;20608;-81
2022/08/28 13:04:32;;;;;;;7.37;5.57;;;;;;;;;;5050207;28;20186;-82
2022/08/28 13:07:02;;;;;;;8.60;5.97;;;;;;;;;;5017180;28;20213;-82
2022/08/28 13:09:29;;;;;;;8.20;5.60;;;;;;;;;;5031147;28;20202;-79
2022/08/28 13:11:55;;;;;;;8.60;5.93;;;;;;;;;;5048739;28;20234;-80
2022/08/28 13:14:39;;;;;;;10.20;5.57;;;;;;;;;;5051417;28;20233;-79
2022/08/28 13:17:07;;;;;;;8.57;5.80;;;;;;;;;;5050749;28;20636;-79
2022/08/28 13:19:35;;;;;;;8.23;5.53;;;;;;;;;;5046526;28;20693;-82
2022/08/28 13:22:07;;;;;;;5.93;5.20;;;;;;;;;;5040101;28;20285;-81
2022/08/28 13:24:39;;;;;;;6.70;5.80;;;;;;;;;;5031506;28;20738;-82
2022/08/28 13:27:24;;;;;;;7.83;5.37;;;;;;;;;;5035821;28;20247;-83
2022/08/28 13:30:00;;;;;;;7.20;5.20;;;;;;;;;;5049583;28;20772;-83
2022/08/28 13:32:31;;;;;;;6.97;5.00;;;;;;;;;;5051021;28;20269;-81
2022/08/28 13:35:02;;;;;;;9.17;5.57;;;;;;;;;;5046541;28;20181;-79
2022/08/28 13:37:48;;;;;;;6.70;4.90;;;;;;;;;;5049297;28;20191;-84
2022/08/28 13:40:17;;;;;;;7.37;4.80;;;;;;;;;;5048742;28;20912;-81
2022/08/28 13:43:08;;;;;;;8.90;5.07;;;;;;;;;;5034958;28;20208;-83
2022/08/28 13:45:39;;;;;;;6.43;5.00;;;;;;;;;;5047016;28;20199;-80
2022/08/28 13:48:13;;;;;;;6.23;5.10;;;;;;;;;;5035657;28;21304;-80
2022/08/28 13:50:42;;;;;;;7.57;5.13;;;;;;;;;;5030321;28;20547;-81
2022/08/28 13:53:12;;;;;;;7.83;4.83;;;;;;;;;;5025950;28;20234;-81
2022/08/28 13:55:40;;;;;;;7.97;4.73;;;;;;;;;;5010726;28;20272;-82
2022/08/28 13:58:08;;;;;;;6.20;4.97;;;;;;;;;;5048012;28;20582;-72
2022/08/28 14:00:36;;;;;;;8.97;5.27;;;;;;;;;;5031223;28;20200;-81
2022/08/28 14:05:50;;;;;;;7.30;5.00;;;;;;;;;;5038831;28;20226;-75
2022/08/28 14:08:17;;;;;;;8.83;4.57;;;;;;;;;;5031466;28;20286;-75
2022/08/28 14:10:46;;;;;;;7.27;4.50;;;;;;;;;;5048593;28;20195;-85
2022/08/28 14:13:13;;;;;;;26.90;6.50;;;;;;;;;;5031919;28;20293;-72
2022/08/28 14:15:40;;;;;;;11.17;4.63;;;;;;;;;;5048896;28;20272;-78
2022/08/28 14:18:07;;;;;;;9.60;7.70;;;;;;;;;;5047615;28;20199;-71
2022/08/28 14:20:34;;;;;;;15.17;5.73;;;;;;;;;;5046166;28;20201;-70
2022/08/28 14:23:01;;;;;;;6.47;4.20;;;;;;;;;;5048274;28;20286;-78
2022/08/28 14:25:29;;;;;;;5.97;4.30;;;;;;;;;;5032442;28;20262;-81
2022/08/28 14:28:15;;;;;;;7.40;4.23;;;;;;;;;;5047899;28;20654;-73
2022/08/28 14:30:45;;;;;;;5.33;4.17;;;;;;;;;;5032242;28;20187;-74
2022/08/28 14:33:15;;;;;;;6.23;4.30;;;;;;;;;;5046126;28;20993;-75
2022/08/28 14:35:42;;;;;;;5.07;4.03;;;;;;;;;;5036083;28;20223;-76
2022/08/28 14:38:09;;;;;;;15.37;4.73;;;;;;;;;;5035503;28;20214;-77
2022/08/28 14:40:37;;;;;;;5.43;4.07;;;;;;;;;;5048712;28;20301;-76
2022/08/28 14:43:05;;;;;;;5.83;3.77;;;;;;;;;;5048143;28;20790;-76
2022/08/28 14:45:32;;;;;;;6.13;4.27;;;;;;;;;;5046519;28;20278;-75
2022/08/28 14:47:59;;;;;;;10.93;3.93;;;;;;;;;;5050033;28;20236;-77
2022/08/28 14:50:26;;;;;;;4.90;3.80;;;;;;;;;;5048858;28;20222;-77
2022/08/28 14:52:53;;;;;;;4.23;3.50;;;;;;;;;;5042622;28;20229;-82
2022/08/28 14:55:20;;;;;;;4.40;3.97;;;;;;;;;;5039523;28;20182;-76
2022/08/28 14:57:47;;;;;;;4.10;3.37;;;;;;;;;;5039843;28;20701;-68
2022/08/28 15:00:16;;;;;;;4.33;3.33;;;;;;;;;;5025598;28;20218;-71
2022/08/28 15:02:43;;;;;;;5.43;3.67;;;;;;;;;;5040358;28;20195;-77